sensor_id;sensor_type;location;lat;lon;timestamp;pressure;altitude;pressure_sealevel;temperature;humidity
68994;BME280;56054;50.968;5.816;2023-06-10T00:02:43;100517.69;;;22.02;60.84
68994;BME280;56054;50.968;5.816;2023-06-10T00:05:50;100521.13;;;21.96;60.82
68994;BME280;56054;50.968;5.816;2023-06-10T00:08:57;100515.06;;;22.05;60.64
68994;BME280;56054;50.968;5.816;2023-06-10T00:12:05;100521.91;;;21.88;61.49
68994;BME280;56054;50.968;5.816;2023-06-10T00:15:12;100521.13;;;21.96;61.27
68994;BME280;56054;50.968;5.816;2023-06-10T00:18:19;100523.06;;;22.10;60.92
68994;BME280;56054;50.968;5.816;2023-06-10T00:21:30;100522.03;;;21.98;60.94
68994;BME280;56054;50.968;5.816;2023-06-10T00:24:38;100514.66;;;21.74;62.43
68994;BME280;56054;50.968;5.816;2023-06-10T00:27:45;100525.50;;;21.93;62.09
68994;BME280;56054;50.968;5.816;2023-06-10T00:30:58;100518.47;;;21.96;62.31
68994;BME280;56054;50.968;5.816;2023-06-10T00:34:07;100515.56;;;21.76;62.90
68994;BME280;56054;50.968;5.816;2023-06-10T00:37:14;100519.91;;;21.71;63.20
68994;BME280;56054;50.968;5.816;2023-06-10T00:40:21;100517.94;;;21.56;64.01
68994;BME280;56054;50.968;5.816;2023-06-10T00:43:28;100515.59;;;21.78;63.46
68994;BME280;56054;50.968;5.816;2023-06-10T00:46:35;100525.63;;;21.43;64.77
68994;BME280;56054;50.968;5.816;2023-06-10T00:49:42;100528.47;;;21.53;64.49
68994;BME280;56054;50.968;5.816;2023-06-10T00:52:50;100514.28;;;21.50;64.33
68994;BME280;56054;50.968;5.816;2023-06-10T00:55:58;100520.56;;;21.56;64.78
68994;BME280;56054;50.968;5.816;2023-06-10T00:59:06;100519.44;;;21.41;65.00
68994;BME280;56054;50.968;5.816;2023-06-10T01:02:13;100521.16;;;21.38;65.23
68994;BME280;56054;50.968;5.816;2023-06-10T01:05:20;100514.88;;;21.33;65.76
68994;BME280;56054;50.968;5.816;2023-06-10T01:08:38;100519.44;;;21.41;65.40
68994;BME280;56054;50.968;5.816;2023-06-10T01:12:02;100514.03;;;21.34;65.87
68994;BME280;56054;50.968;5.816;2023-06-10T01:15:13;100511.91;;;21.13;66.41
68994;BME280;56054;50.968;5.816;2023-06-10T01:18:20;100514.00;;;21.33;65.69
68994;BME280;56054;50.968;5.816;2023-06-10T01:21:27;100508.28;;;21.07;67.12
68994;BME280;56054;50.968;5.816;2023-06-10T01:24:34;100518.75;;;21.01;67.19
68994;BME280;56054;50.968;5.816;2023-06-10T01:27:41;100523.19;;;21.03;67.40
68994;BME280;56054;50.968;5.816;2023-06-10T01:33:56;100517.97;;;21.05;67.49
68994;BME280;56054;50.968;5.816;2023-06-10T01:37:03;100519.44;;;20.89;68.30
68994;BME280;56054;50.968;5.816;2023-06-10T01:40:14;100518.63;;;20.94;67.81
68994;BME280;56054;50.968;5.816;2023-06-10T01:43:22;100517.56;;;20.83;68.28
68994;BME280;56054;50.968;5.816;2023-06-10T01:46:30;100520.19;;;20.80;68.15
68994;BME280;56054;50.968;5.816;2023-06-10T01:49:37;100516.88;;;20.93;68.15
68994;BME280;56054;50.968;5.816;2023-06-10T01:52:45;100520.00;;;20.71;68.75
68994;BME280;56054;50.968;5.816;2023-06-10T01:55:52;100516.53;;;20.75;68.65
68994;BME280;56054;50.968;5.816;2023-06-10T01:58:59;100517.22;;;20.65;68.98
68994;BME280;56054;50.968;5.816;2023-06-10T02:02:06;100521.88;;;20.78;69.02
68994;BME280;56054;50.968;5.816;2023-06-10T02:05:13;100525.50;;;20.83;68.56
68994;BME280;56054;50.968;5.816;2023-06-10T02:08:20;100521.97;;;20.84;68.16
68994;BME280;56054;50.968;5.816;2023-06-10T02:11:27;100526.22;;;20.74;68.89
68994;BME280;56054;50.968;5.816;2023-06-10T02:14:34;100524.31;;;20.66;69.12
68994;BME280;56054;50.968;5.816;2023-06-10T02:17:41;100522.50;;;20.65;69.20
68994;BME280;56054;50.968;5.816;2023-06-10T02:20:48;100520.00;;;20.71;69.28
68994;BME280;56054;50.968;5.816;2023-06-10T02:23:55;100527.34;;;20.43;69.99
68994;BME280;56054;50.968;5.816;2023-06-10T02:27:02;100534.47;;;20.47;69.88
68994;BME280;56054;50.968;5.816;2023-06-10T02:30:09;100528.22;;;20.42;70.57
68994;BME280;56054;50.968;5.816;2023-06-10T02:33:17;100533.50;;;20.42;70.42
68994;BME280;56054;50.968;5.816;2023-06-10T02:36:24;100532.31;;;20.28;71.13
68994;BME280;56054;50.968;5.816;2023-06-10T02:39:31;100535.44;;;20.52;69.88
68994;BME280;56054;50.968;5.816;2023-06-10T02:42:41;100537.09;;;20.47;69.95
68994;BME280;56054;50.968;5.816;2023-06-10T02:45:49;100534.66;;;20.13;71.51
68994;BME280;56054;50.968;5.816;2023-06-10T02:48:57;100540.38;;;20.34;71.01
68994;BME280;56054;50.968;5.816;2023-06-10T02:52:04;100540.38;;;20.34;70.82
68994;BME280;56054;50.968;5.816;2023-06-10T02:55:11;100542.94;;;20.31;70.79
68994;BME280;56054;50.968;5.816;2023-06-10T02:58:23;100535.34;;;20.46;70.24
68994;BME280;56054;50.968;5.816;2023-06-10T03:01:31;100540.53;;;20.43;69.91
68994;BME280;56054;50.968;5.816;2023-06-10T03:04:43;100544.91;;;20.41;70.56
68994;BME280;56054;50.968;5.816;2023-06-10T03:07:52;100546.44;;;20.30;71.23
68994;BME280;56054;50.968;5.816;2023-06-10T03:10:59;100542.19;;;20.38;70.58
68994;BME280;56054;50.968;5.816;2023-06-10T03:14:07;100536.91;;;19.96;72.81
68994;BME280;56054;50.968;5.816;2023-06-10T03:17:15;100539.91;;;20.13;71.98
68994;BME280;56054;50.968;5.816;2023-06-10T03:20:23;100540.19;;;20.25;71.02
68994;BME280;56054;50.968;5.816;2023-06-10T03:23:30;100548.88;;;20.21;71.97
68994;BME280;56054;50.968;5.816;2023-06-10T03:26:38;100545.41;;;20.22;72.32
68994;BME280;56054;50.968;5.816;2023-06-10T03:29:45;100556.84;;;20.22;71.68
68994;BME280;56054;50.968;5.816;2023-06-10T03:32:53;100551.97;;;20.01;72.19
68994;BME280;56054;50.968;5.816;2023-06-10T03:36:02;100555.84;;;20.19;71.92
68994;BME280;56054;50.968;5.816;2023-06-10T03:39:10;100558.66;;;20.25;71.93
68994;BME280;56054;50.968;5.816;2023-06-10T03:42:17;100560.59;;;19.94;73.66
68994;BME280;56054;50.968;5.816;2023-06-10T03:45:24;100558.03;;;19.96;73.58
68994;BME280;56054;50.968;5.816;2023-06-10T03:48:31;100560.75;;;20.00;73.18
68994;BME280;56054;50.968;5.816;2023-06-10T03:51:38;100561.59;;;19.99;73.84
68994;BME280;56054;50.968;5.816;2023-06-10T03:54:45;100567.59;;;19.92;73.84
68994;BME280;56054;50.968;5.816;2023-06-10T03:57:52;100562.69;;;19.70;75.48
68994;BME280;56054;50.968;5.816;2023-06-10T04:00:59;100568.22;;;19.80;75.04
68994;BME280;56054;50.968;5.816;2023-06-10T04:04:09;100563.06;;;19.86;74.79
68994;BME280;56054;50.968;5.816;2023-06-10T04:07:16;100569.88;;;19.75;75.60
68994;BME280;56054;50.968;5.816;2023-06-10T04:10:23;100563.34;;;19.61;76.03
68994;BME280;56054;50.968;5.816;2023-06-10T04:13:30;100559.97;;;19.66;76.04
68994;BME280;56054;50.968;5.816;2023-06-10T04:16:37;100570.88;;;19.82;75.12
68994;BME280;56054;50.968;5.816;2023-06-10T04:19:45;100572.47;;;19.74;75.77
68994;BME280;56054;50.968;5.816;2023-06-10T04:22:52;100572.50;;;19.75;75.42
68994;BME280;56054;50.968;5.816;2023-06-10T04:26:00;100579.19;;;19.62;76.76
68994;BME280;56054;50.968;5.816;2023-06-10T04:29:08;100572.91;;;19.57;77.06
68994;BME280;56054;50.968;5.816;2023-06-10T04:32:15;100573.34;;;19.74;76.50
68994;BME280;56054;50.968;5.816;2023-06-10T04:35:22;100578.13;;;19.92;75.39
68994;BME280;56054;50.968;5.816;2023-06-10T04:38:31;100569.16;;;19.84;76.22
68994;BME280;56054;50.968;5.816;2023-06-10T04:41:38;100578.19;;;19.94;75.78
68994;BME280;56054;50.968;5.816;2023-06-10T04:44:45;100573.88;;;19.97;75.68
68994;BME280;56054;50.968;5.816;2023-06-10T04:47:53;100576.03;;;19.76;76.29
68994;BME280;56054;50.968;5.816;2023-06-10T04:51:01;100575.22;;;19.80;76.50
68994;BME280;56054;50.968;5.816;2023-06-10T04:54:09;100577.94;;;19.83;76.30
68994;BME280;56054;50.968;5.816;2023-06-10T04:57:16;100576.84;;;19.73;77.22
68994;BME280;56054;50.968;5.816;2023-06-10T05:00:23;100591.31;;;19.91;76.10
68994;BME280;56054;50.968;5.816;2023-06-10T05:03:30;100580.25;;;20.08;75.72
68994;BME280;56054;50.968;5.816;2023-06-10T05:06:37;100573.78;;;19.93;75.72
68994;BME280;56054;50.968;5.816;2023-06-10T05:09:44;100577.69;;;20.12;76.10
68994;BME280;56054;50.968;5.816;2023-06-10T05:12:51;100579.88;;;20.31;74.87
68994;BME280;56054;50.968;5.816;2023-06-10T05:15:58;100575.31;;;20.22;75.34
68994;BME280;56054;50.968;5.816;2023-06-10T05:19:05;100586.06;;;20.33;74.85
68994;BME280;56054;50.968;5.816;2023-06-10T05:22:12;100583.69;;;20.45;74.93
68994;BME280;56054;50.968;5.816;2023-06-10T05:25:19;100595.59;;;20.67;73.55
68994;BME280;56054;50.968;5.816;2023-06-10T05:28:26;100590.44;;;20.73;74.49
68994;BME280;56054;50.968;5.816;2023-06-10T05:31:33;100586.97;;;20.76;73.59
68994;BME280;56054;50.968;5.816;2023-06-10T05:34:40;100598.69;;;20.90;74.06
68994;BME280;56054;50.968;5.816;2023-06-10T05:37:47;100597.66;;;20.82;72.65
68994;BME280;56054;50.968;5.816;2023-06-10T05:40:54;100592.44;;;20.85;72.64
68994;BME280;56054;50.968;5.816;2023-06-10T05:44:01;100597.16;;;21.03;72.08
68994;BME280;56054;50.968;5.816;2023-06-10T05:47:08;100598.94;;;21.04;71.16
68994;BME280;56054;50.968;5.816;2023-06-10T05:50:15;100600.81;;;21.11;71.48
68994;BME280;56054;50.968;5.816;2023-06-10T05:53:22;100603.59;;;21.17;71.47
68994;BME280;56054;50.968;5.816;2023-06-10T05:56:29;100592.84;;;21.08;70.81
68994;BME280;56054;50.968;5.816;2023-06-10T05:59:36;100598.81;;;21.44;70.49
68994;BME280;56054;50.968;5.816;2023-06-10T06:02:43;100598.81;;;21.44;70.03
68994;BME280;56054;50.968;5.816;2023-06-10T06:05:50;100605.00;;;21.47;69.16
68994;BME280;56054;50.968;5.816;2023-06-10T06:08:57;100601.75;;;21.65;69.42
68994;BME280;56054;50.968;5.816;2023-06-10T06:12:04;100605.59;;;21.83;68.57
68994;BME280;56054;50.968;5.816;2023-06-10T06:15:11;100600.31;;;21.83;67.80
68994;BME280;56054;50.968;5.816;2023-06-10T06:18:18;100611.09;;;21.98;67.44
68994;BME280;56054;50.968;5.816;2023-06-10T06:21:25;100606.91;;;22.12;67.86
68994;BME280;56054;50.968;5.816;2023-06-10T06:24:32;100603.34;;;22.10;67.03
68994;BME280;56054;50.968;5.816;2023-06-10T06:27:39;100605.09;;;22.11;66.63
68994;BME280;56054;50.968;5.816;2023-06-10T06:30:46;100609.97;;;22.43;66.57
68994;BME280;56054;50.968;5.816;2023-06-10T06:34:00;100614.19;;;22.29;66.15
68994;BME280;56054;50.968;5.816;2023-06-10T06:37:07;100604.16;;;22.75;65.05
68994;BME280;56054;50.968;5.816;2023-06-10T06:40:16;100607.19;;;23.05;64.85
68994;BME280;56054;50.968;5.816;2023-06-10T06:43:24;100615.16;;;23.05;63.74
68994;BME280;56054;50.968;5.816;2023-06-10T06:46:40;100614.47;;;23.26;63.46
68994;BME280;56054;50.968;5.816;2023-06-10T06:49:49;100615.16;;;23.08;62.97
68994;BME280;56054;50.968;5.816;2023-06-10T06:52:56;100618.91;;;23.29;62.58
68994;BME280;56054;50.968;5.816;2023-06-10T06:56:06;100625.97;;;23.27;61.75
68994;BME280;56054;50.968;5.816;2023-06-10T06:59:16;100620.78;;;23.42;61.16
68994;BME280;56054;50.968;5.816;2023-06-10T07:02:24;100619.94;;;23.48;60.06
68994;BME280;56054;50.968;5.816;2023-06-10T07:05:35;100618.44;;;23.73;61.15
68994;BME280;56054;50.968;5.816;2023-06-10T07:08:43;100620.16;;;23.71;58.75
68994;BME280;56054;50.968;5.816;2023-06-10T07:11:50;100618.50;;;23.81;58.99
68994;BME280;56054;50.968;5.816;2023-06-10T07:14:57;100619.44;;;23.93;58.32
68994;BME280;56054;50.968;5.816;2023-06-10T07:18:06;100624.88;;;24.10;58.16
68994;BME280;56054;50.968;5.816;2023-06-10T07:21:15;100633.88;;;24.40;56.82
68994;BME280;56054;50.968;5.816;2023-06-10T07:24:22;100630.50;;;24.72;57.03
68994;BME280;56054;50.968;5.816;2023-06-10T07:27:29;100632.22;;;24.59;56.47
68994;BME280;56054;50.968;5.816;2023-06-10T07:30:36;100628.72;;;24.66;55.53
68994;BME280;56054;50.968;5.816;2023-06-10T07:33:43;100636.72;;;24.78;55.43
68994;BME280;56054;50.968;5.816;2023-06-10T07:36:50;100635.00;;;24.96;55.23
68994;BME280;56054;50.968;5.816;2023-06-10T07:39:57;100632.28;;;24.82;55.06
68994;BME280;56054;50.968;5.816;2023-06-10T07:43:10;100635.00;;;24.93;53.30
68994;BME280;56054;50.968;5.816;2023-06-10T07:46:17;100633.22;;;24.90;54.21
68994;BME280;56054;50.968;5.816;2023-06-10T07:49:26;100632.38;;;25.08;52.50
68994;BME280;56054;50.968;5.816;2023-06-10T07:52:34;100638.59;;;25.16;53.85
68994;BME280;56054;50.968;5.816;2023-06-10T07:59:05;100633.34;;;25.52;52.41
68994;BME280;56054;50.968;5.816;2023-06-10T08:02:12;100636.00;;;25.47;49.77
68994;BME280;56054;50.968;5.816;2023-06-10T08:05:20;100632.47;;;25.67;49.59
68994;BME280;56054;50.968;5.816;2023-06-10T08:08:27;100632.47;;;25.71;49.64
68994;BME280;56054;50.968;5.816;2023-06-10T08:11:34;100638.66;;;25.76;49.21
68994;BME280;56054;50.968;5.816;2023-06-10T08:14:41;100629.78;;;26.03;48.32
68994;BME280;56054;50.968;5.816;2023-06-10T08:17:48;100638.69;;;25.82;48.82
68994;BME280;56054;50.968;5.816;2023-06-10T08:20:55;100634.19;;;26.23;48.69
68994;BME280;56054;50.968;5.816;2023-06-10T08:24:03;100629.69;;;26.42;46.83
68994;BME280;56054;50.968;5.816;2023-06-10T08:27:10;100628.88;;;26.17;46.95
68994;BME280;56054;50.968;5.816;2023-06-10T08:30:17;100637.78;;;26.03;48.21
68994;BME280;56054;50.968;5.816;2023-06-10T08:33:27;100634.13;;;26.54;48.17
68994;BME280;56054;50.968;5.816;2023-06-10T08:36:34;100623.41;;;26.66;47.53
68994;BME280;56054;50.968;5.816;2023-06-10T08:39:41;100627.84;;;26.65;46.31
68994;BME280;56054;50.968;5.816;2023-06-10T08:46:04;100633.06;;;26.82;47.19
68994;BME280;56054;50.968;5.816;2023-06-10T08:49:18;100625.03;;;26.92;44.92
68994;BME280;56054;50.968;5.816;2023-06-10T08:52:26;100630.41;;;26.85;45.08
68994;BME280;56054;50.968;5.816;2023-06-10T08:55:38;100624.88;;;27.22;45.18
68994;BME280;56054;50.968;5.816;2023-06-10T08:58:48;100629.25;;;27.34;44.59
68994;BME280;56054;50.968;5.816;2023-06-10T09:01:55;100624.88;;;27.16;44.11
68994;BME280;56054;50.968;5.816;2023-06-10T09:05:02;100622.22;;;27.22;44.42
68994;BME280;56054;50.968;5.816;2023-06-10T09:08:10;100631.78;;;27.51;46.25
68994;BME280;56054;50.968;5.816;2023-06-10T09:11:39;100629.00;;;27.62;45.50
68994;BME280;56054;50.968;5.816;2023-06-10T09:14:48;100631.50;;;27.85;45.11
68994;BME280;56054;50.968;5.816;2023-06-10T09:17:56;100633.06;;;28.06;45.52
68994;BME280;56054;50.968;5.816;2023-06-10T09:21:03;100626.16;;;27.85;44.69
68994;BME280;56054;50.968;5.816;2023-06-10T09:24:10;100628.16;;;27.55;43.14
68994;BME280;56054;50.968;5.816;2023-06-10T09:27:17;100631.75;;;27.54;44.01
68994;BME280;56054;50.968;5.816;2023-06-10T09:33:32;100628.91;;;27.74;43.66
68994;BME280;56054;50.968;5.816;2023-06-10T09:36:44;100618.06;;;27.94;43.38
68994;BME280;56054;50.968;5.816;2023-06-10T09:40:05;100631.28;;;28.09;43.83
68994;BME280;56054;50.968;5.816;2023-06-10T09:43:12;100621.69;;;27.90;43.77
68994;BME280;56054;50.968;5.816;2023-06-10T09:46:19;100625.66;;;28.32;43.98
68994;BME280;56054;50.968;5.816;2023-06-10T09:49:28;100623.88;;;28.33;42.12
68994;BME280;56054;50.968;5.816;2023-06-10T09:52:36;100615.78;;;28.39;41.87
68994;BME280;56054;50.968;5.816;2023-06-10T09:55:44;100613.94;;;28.49;42.33
68994;BME280;56054;50.968;5.816;2023-06-10T09:58:53;100619.44;;;28.30;42.05
68994;BME280;56054;50.968;5.816;2023-06-10T10:02:00;100620.09;;;28.52;41.48
68994;BME280;56054;50.968;5.816;2023-06-10T10:05:07;100616.38;;;28.66;41.35
68994;BME280;56054;50.968;5.816;2023-06-10T10:08:14;100618.41;;;28.42;41.57
68994;BME280;56054;50.968;5.816;2023-06-10T10:11:22;100614.19;;;28.94;40.56
68994;BME280;56054;50.968;5.816;2023-06-10T10:14:31;100616.84;;;28.95;41.25
68994;BME280;56054;50.968;5.816;2023-06-10T10:17:46;100618.72;;;28.90;40.50
68994;BME280;56054;50.968;5.816;2023-06-10T10:21:03;100615.91;;;28.99;40.28
68994;BME280;56054;50.968;5.816;2023-06-10T10:24:21;100613.09;;;29.12;40.79
68994;BME280;56054;50.968;5.816;2023-06-10T10:27:33;100612.44;;;28.91;39.62
68994;BME280;56054;50.968;5.816;2023-06-10T10:30:45;100618.88;;;29.38;39.77
68994;BME280;56054;50.968;5.816;2023-06-10T10:33:59;100609.22;;;29.31;39.17
68994;BME280;56054;50.968;5.816;2023-06-10T10:37:07;100604.03;;;29.20;39.17
68994;BME280;56054;50.968;5.816;2023-06-10T10:40:17;100604.97;;;29.18;39.24
68994;BME280;56054;50.968;5.816;2023-06-10T10:43:24;100603.53;;;29.51;38.93
68994;BME280;56054;50.968;5.816;2023-06-10T10:46:49;100595.97;;;29.78;36.76
68994;BME280;56054;50.968;5.816;2023-06-10T10:49:57;100592.84;;;29.50;36.04
68994;BME280;56054;50.968;5.816;2023-06-10T10:53:05;100607.53;;;29.78;37.78
68994;BME280;56054;50.968;5.816;2023-06-10T10:56:14;100606.53;;;29.85;37.77
68994;BME280;56054;50.968;5.816;2023-06-10T10:59:24;100598.56;;;29.82;37.55
68994;BME280;56054;50.968;5.816;2023-06-10T11:02:41;100602.41;;;30.14;37.87
68994;BME280;56054;50.968;5.816;2023-06-10T11:05:49;100594.38;;;30.14;38.56
68994;BME280;56054;50.968;5.816;2023-06-10T11:08:56;100592.41;;;30.22;37.94
68994;BME280;56054;50.968;5.816;2023-06-10T11:12:05;100598.75;;;30.18;37.69
68994;BME280;56054;50.968;5.816;2023-06-10T11:15:13;100595.06;;;30.25;35.56
68994;BME280;56054;50.968;5.816;2023-06-10T11:18:24;100599.44;;;30.29;35.95
68994;BME280;56054;50.968;5.816;2023-06-10T11:21:31;100588.09;;;30.14;35.54
68994;BME280;56054;50.968;5.816;2023-06-10T11:24:38;100585.97;;;29.86;34.51
68994;BME280;56054;50.968;5.816;2023-06-10T11:27:51;100580.81;;;30.22;34.42
68994;BME280;56054;50.968;5.816;2023-06-10T11:30:58;100576.53;;;30.57;35.04
68994;BME280;56054;50.968;5.816;2023-06-10T11:34:06;100576.81;;;30.44;36.62
68994;BME280;56054;50.968;5.816;2023-06-10T11:37:16;100571.16;;;30.13;33.88
68994;BME280;56054;50.968;5.816;2023-06-10T11:40:23;100576.03;;;29.93;35.37
68994;BME280;56054;50.968;5.816;2023-06-10T11:43:30;100577.59;;;30.04;34.65
68994;BME280;56054;50.968;5.816;2023-06-10T11:46:38;100570.50;;;30.02;35.06
68994;BME280;56054;50.968;5.816;2023-06-10T11:49:46;100571.28;;;30.07;35.15
68994;BME280;56054;50.968;5.816;2023-06-10T11:53:01;100562.47;;;30.45;33.54
68994;BME280;56054;50.968;5.816;2023-06-10T11:56:08;100564.59;;;30.29;33.97
68994;BME280;56054;50.968;5.816;2023-06-10T11:59:15;100569.28;;;30.60;33.61
68994;BME280;56054;50.968;5.816;2023-06-10T12:02:28;100571.44;;;30.44;32.22
68994;BME280;56054;50.968;5.816;2023-06-10T12:05:35;100561.78;;;31.15;31.88
68994;BME280;56054;50.968;5.816;2023-06-10T12:08:43;100559.88;;;30.41;33.78
68994;BME280;56054;50.968;5.816;2023-06-10T12:12:06;100558.28;;;31.11;32.90
68994;BME280;56054;50.968;5.816;2023-06-10T12:15:24;100552.25;;;31.03;32.18
68994;BME280;56054;50.968;5.816;2023-06-10T12:18:35;100549.25;;;31.16;32.93
68994;BME280;56054;50.968;5.816;2023-06-10T12:21:42;100542.16;;;31.13;31.77
68994;BME280;56054;50.968;5.816;2023-06-10T12:25:01;100540.78;;;31.32;30.44
68994;BME280;56054;50.968;5.816;2023-06-10T12:28:10;100545.28;;;31.32;32.06
68994;BME280;56054;50.968;5.816;2023-06-10T12:31:21;100548.50;;;31.09;32.54
68994;BME280;56054;50.968;5.816;2023-06-10T12:34:33;100536.28;;;31.69;31.61
68994;BME280;56054;50.968;5.816;2023-06-10T12:37:42;100541.75;;;32.28;30.79
68994;BME280;56054;50.968;5.816;2023-06-10T12:40:50;100541.22;;;31.51;30.43
68994;BME280;56054;50.968;5.816;2023-06-10T12:43:57;100532.59;;;31.01;30.93
68994;BME280;56054;50.968;5.816;2023-06-10T12:47:08;100535.84;;;31.51;30.35
68994;BME280;56054;50.968;5.816;2023-06-10T12:50:15;100534.97;;;31.13;30.68
68994;BME280;56054;50.968;5.816;2023-06-10T12:53:23;100530.47;;;31.51;30.43
68994;BME280;56054;50.968;5.816;2023-06-10T12:56:30;100536.34;;;31.66;29.53
68994;BME280;56054;50.968;5.816;2023-06-10T12:59:37;100521.38;;;31.55;29.81
68994;BME280;56054;50.968;5.816;2023-06-10T13:02:44;100536.00;;;31.45;30.44
68994;BME280;56054;50.968;5.816;2023-06-10T13:05:51;100533.84;;;31.92;30.30
68994;BME280;56054;50.968;5.816;2023-06-10T13:08:58;100525.72;;;31.95;29.86
68994;BME280;56054;50.968;5.816;2023-06-10T13:12:05;100524.91;;;31.58;30.09
68994;BME280;56054;50.968;5.816;2023-06-10T13:15:14;100524.34;;;31.79;29.96
68994;BME280;56054;50.968;5.816;2023-06-10T13:18:21;100519.50;;;31.61;30.70
68994;BME280;56054;50.968;5.816;2023-06-10T13:21:28;100525.19;;;31.81;30.24
68994;BME280;56054;50.968;5.816;2023-06-10T13:24:35;100517.94;;;31.50;30.17
68994;BME280;56054;50.968;5.816;2023-06-10T13:27:45;100511.94;;;31.41;30.57
68994;BME280;56054;50.968;5.816;2023-06-10T13:30:52;100513.44;;;31.85;30.82
68994;BME280;56054;50.968;5.816;2023-06-10T13:34:02;100504.75;;;31.75;30.02
68994;BME280;56054;50.968;5.816;2023-06-10T13:37:09;100503.72;;;32.42;29.55
68994;BME280;56054;50.968;5.816;2023-06-10T13:40:16;100510.06;;;32.39;30.05
68994;BME280;56054;50.968;5.816;2023-06-10T13:43:26;100508.59;;;32.29;29.67
68994;BME280;56054;50.968;5.816;2023-06-10T13:46:33;100499.09;;;32.46;29.56
68994;BME280;56054;50.968;5.816;2023-06-10T13:49:40;100494.50;;;32.79;30.14
68994;BME280;56054;50.968;5.816;2023-06-10T13:52:47;100487.88;;;32.02;30.64
68994;BME280;56054;50.968;5.816;2023-06-10T13:56:03;100500.75;;;31.90;30.81
68994;BME280;56054;50.968;5.816;2023-06-10T13:59:32;100501.16;;;32.08;30.41
68994;BME280;56054;50.968;5.816;2023-06-10T14:02:39;100489.81;;;32.28;30.04
68994;BME280;56054;50.968;5.816;2023-06-10T14:05:46;100496.69;;;32.07;30.00
68994;BME280;56054;50.968;5.816;2023-06-10T14:08:53;100491.72;;;32.54;28.98
68994;BME280;56054;50.968;5.816;2023-06-10T14:12:00;100479.78;;;31.72;29.49
68994;BME280;56054;50.968;5.816;2023-06-10T14:15:08;100495.53;;;32.75;29.39
68994;BME280;56054;50.968;5.816;2023-06-10T14:18:15;100490.69;;;32.28;29.54
68994;BME280;56054;50.968;5.816;2023-06-10T14:21:22;100498.16;;;32.18;30.10
68994;BME280;56054;50.968;5.816;2023-06-10T14:24:29;100494.41;;;32.24;30.45
68994;BME280;56054;50.968;5.816;2023-06-10T14:27:36;100500.41;;;31.70;30.74
68994;BME280;56054;50.968;5.816;2023-06-10T14:30:43;100495.31;;;32.23;29.72
68994;BME280;56054;50.968;5.816;2023-06-10T14:33:50;100500.81;;;32.20;30.31
68994;BME280;56054;50.968;5.816;2023-06-10T14:36:57;100493.81;;;31.82;30.01
68994;BME280;56054;50.968;5.816;2023-06-10T14:40:05;100488.34;;;32.46;30.27
68994;BME280;56054;50.968;5.816;2023-06-10T14:43:12;100485.16;;;32.62;30.21
68994;BME280;56054;50.968;5.816;2023-06-10T14:46:19;100486.00;;;32.65;29.91
68994;BME280;56054;50.968;5.816;2023-06-10T14:49:26;100475.06;;;32.41;30.11
68994;BME280;56054;50.968;5.816;2023-06-10T14:52:33;100476.13;;;32.92;29.90
68994;BME280;56054;50.968;5.816;2023-06-10T14:55:40;100483.28;;;32.36;30.08
68994;BME280;56054;50.968;5.816;2023-06-10T14:58:47;100484.94;;;32.11;29.92
68994;BME280;56054;50.968;5.816;2023-06-10T15:01:54;100469.72;;;32.39;30.15
68994;BME280;56054;50.968;5.816;2023-06-10T15:05:01;100473.06;;;33.04;29.62
68994;BME280;56054;50.968;5.816;2023-06-10T15:08:08;100466.34;;;33.17;28.71
68994;BME280;56054;50.968;5.816;2023-06-10T15:11:15;100468.84;;;32.95;29.49
68994;BME280;56054;50.968;5.816;2023-06-10T15:14:22;100460.50;;;33.04;28.93
68994;BME280;56054;50.968;5.816;2023-06-10T15:17:29;100447.97;;;33.29;29.68
68994;BME280;56054;50.968;5.816;2023-06-10T15:20:36;100446.63;;;32.89;28.98
68994;BME280;56054;50.968;5.816;2023-06-10T15:23:43;100455.00;;;32.79;29.52
68994;BME280;56054;50.968;5.816;2023-06-10T15:26:50;100453.84;;;32.60;29.71
68994;BME280;56054;50.968;5.816;2023-06-10T15:29:57;100460.22;;;32.28;30.69
68994;BME280;56054;50.968;5.816;2023-06-10T15:33:04;100453.44;;;32.72;30.61
68994;BME280;56054;50.968;5.816;2023-06-10T15:36:11;100455.97;;;32.20;31.01
68994;BME280;56054;50.968;5.816;2023-06-10T15:39:18;100469.16;;;32.00;31.57
68994;BME280;56054;50.968;5.816;2023-06-10T15:42:25;100460.94;;;31.73;32.39
68994;BME280;56054;50.968;5.816;2023-06-10T15:45:32;100458.44;;;31.33;31.86
68994;BME280;56054;50.968;5.816;2023-06-10T15:48:39;100461.91;;;31.71;31.78
68994;BME280;56054;50.968;5.816;2023-06-10T15:51:46;100459.16;;;31.41;32.49
68994;BME280;56054;50.968;5.816;2023-06-10T15:54:53;100457.78;;;31.25;31.92
68994;BME280;56054;50.968;5.816;2023-06-10T15:58:00;100457.91;;;31.53;32.22
68994;BME280;56054;50.968;5.816;2023-06-10T16:01:07;100456.69;;;31.65;32.08
68994;BME280;56054;50.968;5.816;2023-06-10T16:04:14;100454.69;;;31.73;31.81
68994;BME280;56054;50.968;5.816;2023-06-10T16:07:21;100452.66;;;32.40;31.52
68994;BME280;56054;50.968;5.816;2023-06-10T16:10:28;100444.19;;;31.64;31.33
68994;BME280;56054;50.968;5.816;2023-06-10T16:13:35;100441.75;;;31.54;31.39
68994;BME280;56054;50.968;5.816;2023-06-10T16:16:42;100442.00;;;32.09;31.50
68994;BME280;56054;50.968;5.816;2023-06-10T16:19:49;100446.06;;;31.91;31.29
68994;BME280;56054;50.968;5.816;2023-06-10T16:22:56;100440.19;;;31.78;31.62
68994;BME280;56054;50.968;5.816;2023-06-10T16:26:03;100437.66;;;32.04;30.83
68994;BME280;56054;50.968;5.816;2023-06-10T16:29:10;100435.47;;;32.46;31.21
68994;BME280;56054;50.968;5.816;2023-06-10T16:32:17;100429.69;;;32.30;30.57
68994;BME280;56054;50.968;5.816;2023-06-10T16:35:24;100432.03;;;32.13;31.15
68994;BME280;56054;50.968;5.816;2023-06-10T16:38:31;100418.44;;;32.17;30.94